Time;durP1;ratioP1;P1;durP2;ratioP2;P2;SDS_P1;SDS_P2;PMS_P1;PMS_P2;Temp;Humidity;BMP_temperature;BMP_pressure;BME280_temperature;BME280_humidity;BME280_pressure;Samples;Min_cycle;Max_cycle;Signal;HPM_P1;HPM_P2
2022/04/10 00:02:26;;;;;;;1.83;1.58;;;;;;;5.78;80.46;100868.91;5071912;28;20395;-69
2022/04/10 00:04:54;;;;;;;2.13;1.73;;;;;;;5.70;80.55;100866.56;5071418;28;20063;-69
2022/04/10 00:07:22;;;;;;;3.00;1.55;;;;;;;5.57;80.91;100863.03;5070741;28;20414;-69
2022/04/10 00:09:50;;;;;;;1.80;1.70;;;;;;;5.47;81.80;100862.84;5069727;28;20434;-69
2022/04/10 00:12:18;;;;;;;2.88;1.80;;;;;;;5.35;82.36;100866.41;5071390;28;20048;-69
2022/04/10 00:14:46;;;;;;;4.93;2.15;;;;;;;5.47;82.05;100868.28;5071897;28;20052;-69
2022/04/10 00:17:14;;;;;;;3.58;1.40;;;;;;;5.38;81.88;100856.97;5071572;28;20053;-70
2022/04/10 00:19:45;;;;;;;3.90;1.73;;;;;;;5.20;82.63;100850.59;5071785;28;20051;-69
2022/04/10 00:22:13;;;;;;;2.55;2.35;;;;;;;5.05;83.87;100851.09;5071542;28;20049;-70
2022/04/10 00:24:41;;;;;;;2.90;2.20;;;;;;;4.93;84.27;100848.34;5071937;28;20044;-69
2022/04/10 00:27:13;;;;;;;2.63;1.88;;;;;;;4.88;84.88;100844.72;5071362;28;20052;-68
2022/04/10 00:29:41;;;;;;;2.80;1.88;;;;;;;4.82;85.42;100841.88;5073868;28;20055;-68
2022/04/10 00:32:10;;;;;;;2.53;2.30;;;;;;;4.74;85.93;100842.19;5075141;28;20075;-69
2022/04/10 00:34:38;;;;;;;2.90;2.25;;;;;;;4.71;86.59;100838.06;5075510;28;20047;-69
2022/04/10 00:37:05;;;;;;;2.75;2.45;;;;;;;4.74;86.68;100833.25;5075350;28;20044;-69
2022/04/10 00:39:33;;;;;;;2.28;2.08;;;;;;;4.70;86.90;100835.63;5075078;28;20055;-69
2022/04/10 00:42:01;;;;;;;3.00;2.22;;;;;;;4.67;87.14;100833.34;5074911;28;20487;-69
2022/04/10 00:44:33;;;;;;;2.90;2.17;;;;;;;4.61;87.59;100831.59;5074358;28;20406;-69
2022/04/10 00:47:03;;;;;;;3.72;2.17;;;;;;;4.56;88.08;100835.00;5074903;28;20060;-69
2022/04/10 00:49:31;;;;;;;4.43;2.38;;;;;;;4.56;88.08;100833.09;5074908;28;20537;-69
2022/04/10 00:52:01;;;;;;;4.82;2.55;;;;;;;4.43;88.76;100834.16;5074749;28;20044;-69
2022/04/10 00:54:30;;;;;;;3.42;2.45;;;;;;;4.46;88.86;100835.59;5074926;28;20057;-70
2022/04/10 00:57:00;;;;;;;3.08;2.78;;;;;;;4.48;89.24;100836.16;5075038;28;20052;-69
2022/04/10 00:59:29;;;;;;;4.85;2.58;;;;;;;4.48;89.19;100830.75;5075205;28;20059;-69
2022/04/10 01:01:57;;;;;;;4.15;3.15;;;;;;;4.38;89.96;100831.31;5074559;28;20052;-69
2022/04/10 01:04:42;;;;;;;5.20;2.92;;;;;;;4.44;90.13;100826.84;5073198;28;20064;-69
2022/04/10 01:07:13;;;;;;;3.17;2.90;;;;;;;4.37;90.42;100815.28;5073079;28;20045;-69
2022/04/10 01:09:46;;;;;;;3.70;3.20;;;;;;;4.38;90.28;100815.06;5073161;28;20048;-69
2022/04/10 01:12:14;;;;;;;3.80;2.90;;;;;;;4.42;90.48;100804.56;5073188;28;20049;-69
2022/04/10 01:14:47;;;;;;;2.85;2.65;;;;;;;4.51;90.27;100811.31;5098114;28;20404;-69
2022/04/10 01:17:19;;;;;;;3.17;2.88;;;;;;;4.54;90.81;100807.28;5068190;28;20049;-69
2022/04/10 01:19:50;;;;;;;4.20;3.10;;;;;;;4.57;90.73;100810.38;5090539;28;20048;-69
2022/04/10 01:22:40;;;;;;;4.43;2.90;;;;;;;4.48;91.25;100809.06;5056022;28;20059;-69
2022/04/10 01:25:11;;;;;;;4.93;3.13;;;;;;;4.50;91.20;100811.53;5073530;28;20052;-69
2022/04/10 01:27:42;;;;;;;4.97;3.10;;;;;;;4.51;91.20;100821.31;5073137;28;20486;-69
2022/04/10 01:30:12;;;;;;;3.75;3.03;;;;;;;4.69;91.01;100821.22;5073089;28;20060;-69
2022/04/10 01:32:43;;;;;;;11.07;2.83;;;;;;;4.73;90.36;100826.19;5073248;28;20044;-69
2022/04/10 01:35:11;;;;;;;6.68;3.25;;;;;;;4.68;90.51;100824.16;5074158;28;20398;-69
2022/04/10 01:37:40;;;;;;;3.60;2.53;;;;;;;4.66;90.48;100826.28;5074459;28;20055;-69
2022/04/10 01:40:12;;;;;;;5.15;2.85;;;;;;;4.78;90.13;100819.00;5071784;28;20048;-69
2022/04/10 01:42:42;;;;;;;4.20;2.97;;;;;;;4.79;89.67;100815.22;5072618;28;20075;-69
2022/04/10 01:45:10;;;;;;;3.22;2.90;;;;;;;4.65;90.02;100805.66;5092095;28;20053;-69
2022/04/10 01:47:38;;;;;;;6.65;3.22;;;;;;;4.59;90.94;100804.69;5073759;28;20495;-69
2022/04/10 01:50:08;;;;;;;5.05;3.50;;;;;;;4.43;91.26;100801.63;5072252;28;20052;-69
2022/04/10 01:52:36;;;;;;;3.05;2.78;;;;;;;4.38;91.63;100793.38;5073683;28;20048;-69
2022/04/10 01:55:05;;;;;;;3.50;3.20;;;;;;;4.40;91.98;100790.44;5072111;28;20495;-69
2022/04/10 01:57:33;;;;;;;3.65;2.88;;;;;;;4.41;91.42;100795.59;5074205;28;20033;-70
2022/04/10 02:00:02;;;;;;;4.00;2.55;;;;;;;4.41;91.13;100786.66;5072981;28;20526;-69
2022/04/10 02:02:39;;;;;;;2.80;2.60;;;;;;;4.55;90.89;100796.22;5074030;28;20052;-69
2022/04/10 02:05:26;;;;;;;8.75;3.13;;;;;;;4.74;89.45;100790.69;5080889;28;20044;-69
2022/04/10 02:07:54;;;;;;;3.03;2.75;;;;;;;4.84;89.47;100790.13;5071709;28;20056;-69
2022/04/10 02:10:22;;;;;;;5.53;2.92;;;;;;;4.76;89.21;100783.16;5073134;28;20057;-69
2022/04/10 02:12:50;;;;;;;3.45;2.92;;;;;;;4.97;88.59;100789.88;5072203;28;20059;-69
2022/04/10 02:15:18;;;;;;;5.32;2.67;;;;;;;4.79;88.73;100790.81;5073734;28;20051;-69
2022/04/10 02:17:46;;;;;;;2.90;2.60;;;;;;;4.96;87.91;100788.22;5071514;28;20045;-69
2022/04/10 02:20:19;;;;;;;3.85;3.05;;;;;;;5.00;87.47;100779.59;5071638;28;20487;-69
2022/04/10 02:22:47;;;;;;;3.00;2.75;;;;;;;4.81;88.05;100786.00;5071918;28;20037;-69
2022/04/10 02:25:15;;;;;;;4.22;3.05;;;;;;;4.73;88.81;100789.03;5072444;28;20051;-69
2022/04/10 02:27:42;;;;;;;6.25;2.72;;;;;;;4.63;88.97;100797.75;5073417;28;20044;-69
2022/04/10 02:30:12;;;;;;;3.92;3.00;;;;;;;4.56;89.33;100792.44;5073429;28;20055;-69
2022/04/10 02:32:41;;;;;;;3.08;2.67;;;;;;;4.44;90.30;100802.44;5072010;28;20438;-68
2022/04/10 02:35:09;;;;;;;3.78;3.10;;;;;;;4.53;90.10;100797.50;5073132;28;20048;-69
2022/04/10 02:37:37;;;;;;;4.68;3.58;;;;;;;4.56;90.40;100797.88;5072822;28;20049;-69
2022/04/10 02:40:07;;;;;;;4.15;2.60;;;;;;;4.54;90.15;100797.28;5088827;28;20035;-69
2022/04/10 02:42:35;;;;;;;3.42;2.90;;;;;;;4.61;89.79;100799.06;5071277;28;20048;-68
2022/04/10 02:45:04;;;;;;;3.53;2.85;;;;;;;4.54;90.00;100797.28;5072433;28;20049;-69
2022/04/10 02:47:31;;;;;;;3.40;2.90;;;;;;;4.65;89.69;100798.34;5071814;28;20057;-69
2022/04/10 02:50:00;;;;;;;3.72;3.30;;;;;;;4.69;89.71;100794.13;5070999;28;20415;-69
2022/04/10 02:52:29;;;;;;;4.40;3.63;;;;;;;4.55;89.57;100795.41;5070767;28;20044;-69
2022/04/10 02:54:57;;;;;;;3.58;3.22;;;;;;;4.38;90.18;100796.09;5071144;28;20047;-69
2022/04/10 02:57:43;;;;;;;5.93;3.60;;;;;;;4.28;90.72;100799.38;5092120;28;20049;-69
2022/04/10 03:00:30;;;;;;;5.05;3.60;;;;;;;4.23;91.62;100801.94;5075720;28;20052;-69
2022/04/10 03:03:16;;;;;;;7.97;4.20;;;;;;;4.14;92.34;100806.03;5065057;28;20052;-69
2022/04/10 03:06:03;;;;;;;6.28;3.70;;;;;;;3.99;92.61;100815.41;5078459;28;20071;-69
2022/04/10 03:08:50;;;;;;;4.55;4.15;;;;;;;3.96;93.30;100812.34;5086740;28;20404;-68
2022/04/10 03:11:37;;;;;;;4.82;3.35;;;;;;;4.09;92.84;100805.91;5052883;28;20060;-68
2022/04/10 03:14:24;;;;;;;8.07;4.25;;;;;;;4.11;92.69;100818.16;5058178;28;20063;-69
2022/04/10 03:17:10;;;;;;;6.38;3.75;;;;;;;4.06;92.84;100825.34;5058313;28;20056;-69
2022/04/10 03:19:57;;;;;;;5.50;4.32;;;;;;;4.14;92.81;100816.88;5058198;28;20052;-69
2022/04/10 03:22:43;;;;;;;5.53;4.47;;;;;;;4.23;91.93;100826.34;5057950;28;20047;-69
2022/04/10 03:25:31;;;;;;;5.63;4.30;;;;;;;4.20;92.01;100829.47;5072323;28;20056;-69
2022/04/10 03:28:17;;;;;;;5.55;4.32;;;;;;;4.14;92.21;100823.13;5057997;28;20059;-69
2022/04/10 03:31:04;;;;;;;6.78;4.30;;;;;;;3.97;92.69;100830.25;5057957;28;20387;-69
2022/04/10 03:33:51;;;;;;;5.03;4.43;;;;;;;3.79;93.53;100828.38;5052326;28;20522;-69
2022/04/10 03:36:37;;;;;;;4.32;3.92;;;;;;;3.82;93.91;100838.78;5057814;28;20052;-69
2022/04/10 03:39:25;;;;;;;7.10;4.70;;;;;;;4.14;92.50;100835.81;5058131;28;20063;-69
2022/04/10 03:42:12;;;;;;;6.75;4.30;;;;;;;4.10;91.97;100835.47;5058118;28;20059;-70
2022/04/10 03:44:58;;;;;;;7.28;4.55;;;;;;;4.01;92.27;100837.66;5052346;28;20055;-69
2022/04/10 03:47:49;;;;;;;4.95;3.67;;;;;;;3.78;93.39;100835.69;5057526;28;20060;-69
2022/04/10 03:50:41;;;;;;;5.80;3.90;;;;;;;3.56;94.09;100838.06;5058129;28;20059;-69
2022/04/10 03:53:29;;;;;;;6.13;3.78;;;;;;;3.40;95.29;100843.00;5057437;28;20055;-69
2022/04/10 03:56:16;;;;;;;6.28;4.15;;;;;;;3.38;95.96;100853.25;5057528;28;20055;-70
2022/04/10 03:59:03;;;;;;;4.78;3.85;;;;;;;3.44;95.55;100856.91;5058641;28;20051;-70
2022/04/10 04:01:51;;;;;;;4.65;3.95;;;;;;;3.39;95.93;100846.78;5057413;28;20056;-68
2022/04/10 04:04:37;;;;;;;5.13;3.88;;;;;;;3.33;96.01;100855.78;5057562;28;20728;-68
2022/04/10 04:07:24;;;;;;;5.68;4.25;;;;;;;3.37;95.80;100854.28;5064100;28;20089;-69
2022/04/10 04:10:11;;;;;;;5.78;4.03;;;;;;;3.44;95.59;100856.91;5077851;28;20494;-69
2022/04/10 04:12:58;;;;;;;5.10;4.03;;;;;;;3.44;95.08;100860.47;5078142;28;20083;-69
2022/04/10 04:15:45;;;;;;;6.13;3.83;;;;;;;3.41;95.13;100866.31;5076884;28;20051;-69
2022/04/10 04:18:32;;;;;;;6.13;4.13;;;;;;;3.43;95.30;100863.38;5077300;28;20051;-69
2022/04/10 04:21:18;;;;;;;4.88;4.10;;;;;;;3.41;95.18;100870.91;5070414;28;20067;-69
2022/04/10 04:24:08;;;;;;;6.13;3.83;;;;;;;3.47;95.16;100875.41;5076672;28;20059;-69
2022/04/10 04:26:55;;;;;;;4.20;3.47;;;;;;;3.67;93.97;100883.28;5076904;28;20079;-69
2022/04/10 04:29:41;;;;;;;4.20;3.75;;;;;;;3.79;92.68;100888.78;5076613;28;20055;-69
2022/04/10 04:32:28;;;;;;;4.57;3.55;;;;;;;3.79;91.77;100898.78;5072002;28;20047;-69
2022/04/10 04:35:15;;;;;;;3.97;3.58;;;;;;;3.73;91.13;100895.09;5071173;28;20127;-69
2022/04/10 04:38:02;;;;;;;5.97;3.75;;;;;;;3.66;91.80;100895.16;5104988;27;20067;-69
2022/04/10 04:40:50;;;;;;;4.10;3.42;;;;;;;3.64;92.17;100900.00;5077141;28;20059;-69
2022/04/10 04:43:36;;;;;;;6.50;4.32;;;;;;;3.53;92.83;100900.75;5076800;28;20808;-69
2022/04/10 04:46:23;;;;;;;8.20;4.22;;;;;;;3.51;93.97;100910.97;5076656;28;20064;-69
2022/04/10 04:49:10;;;;;;;5.85;4.10;;;;;;;3.57;94.80;100904.66;5074062;28;20051;-69
2022/04/10 04:51:57;;;;;;;5.20;4.32;;;;;;;3.64;94.72;100902.69;5103305;27;20052;-68
2022/04/10 04:54:43;;;;;;;5.82;4.50;;;;;;;3.58;93.98;100909.00;5069591;28;20433;-69
2022/04/10 04:57:30;;;;;;;4.90;4.35;;;;;;;3.53;95.13;100911.56;5075495;28;20052;-69
2022/04/10 05:00:16;;;;;;;7.53;4.45;;;;;;;3.59;93.15;100914.22;5076546;28;20493;-69
2022/04/10 05:03:09;;;;;;;5.80;4.97;;;;;;;3.60;93.02;100917.72;5105320;28;20063;-69
2022/04/10 05:05:55;;;;;;;6.22;3.63;;;;;;;3.62;91.71;100921.06;5076557;28;20402;-69
2022/04/10 05:08:46;;;;;;;6.00;3.67;;;;;;;3.62;91.74;100923.75;5069333;28;20052;-69
2022/04/10 05:11:34;;;;;;;4.57;3.60;;;;;;;3.85;91.15;100924.94;5076830;28;20055;-70
2022/04/10 05:14:22;;;;;;;5.40;3.90;;;;;;;3.97;90.59;100923.13;5077000;28;20064;-69
2022/04/10 05:17:09;;;;;;;8.85;4.40;;;;;;;4.19;89.61;100930.78;5079835;28;20052;-69
2022/04/10 05:20:03;;;;;;;7.55;3.85;;;;;;;4.19;89.01;100936.19;5081197;28;20051;-69
2022/04/10 05:22:51;;;;;;;5.15;3.58;;;;;;;4.36;87.60;100930.16;5080241;28;20051;-68
2022/04/10 05:25:37;;;;;;;7.32;3.60;;;;;;;4.56;86.86;100930.69;5079852;28;20055;-68
2022/04/10 05:28:26;;;;;;;4.78;3.50;;;;;;;4.72;85.96;100939.22;5080746;28;20055;-68
2022/04/10 05:31:12;;;;;;;4.47;3.40;;;;;;;4.88;83.66;100939.63;5080545;28;20048;-68
2022/04/10 05:34:03;;;;;;;5.72;3.30;;;;;;;5.16;83.24;100947.09;5079880;28;20075;-68
2022/04/10 05:36:50;;;;;;;5.75;3.45;;;;;;;5.35;82.28;100945.09;5072611;28;20071;-69
2022/04/10 05:39:38;;;;;;;6.55;3.75;;;;;;;5.76;81.87;100957.94;5101866;28;20423;-69
2022/04/10 05:42:26;;;;;;;4.53;3.80;;;;;;;6.14;81.28;100964.75;5068660;28;20076;-69
2022/04/10 05:45:13;;;;;;;3.47;3.17;;;;;;;6.36;80.76;100965.97;5079341;28;20056;-69
2022/04/10 05:48:05;;;;;;;5.15;4.18;;;;;;;6.48;80.75;100963.22;5079191;28;20403;-69
2022/04/10 05:50:52;;;;;;;5.30;4.10;;;;;;;6.70;79.28;100961.44;5075803;28;20059;-68
2022/04/10 05:53:39;;;;;;;4.50;4.00;;;;;;;6.95;78.02;100968.41;5076073;28;20059;-69
2022/04/10 05:56:26;;;;;;;5.75;4.57;;;;;;;7.09;77.99;100976.28;5071289;28;20059;-69
2022/04/10 05:59:13;;;;;;;6.90;4.25;;;;;;;7.42;77.60;100977.31;5078377;28;20166;-69
2022/04/10 06:02:00;;;;;;;6.57;4.53;;;;;;;7.64;75.68;100984.75;5078613;28;20055;-69
2022/04/10 06:04:48;;;;;;;11.13;4.53;;;;;;;7.91;75.57;100978.56;5073029;28;20047;-69
2022/04/10 06:07:38;;;;;;;6.45;4.53;;;;;;;8.25;73.29;100967.53;5075321;28;20060;-71
2022/04/10 06:10:25;;;;;;;5.75;3.60;;;;;;;8.37;72.25;100972.88;5079103;28;20510;-71
2022/04/10 06:13:12;;;;;;;3.92;3.00;;;;;;;8.59;69.71;100970.13;5079453;28;20052;-71
2022/04/10 06:16:09;;;;;;;6.82;3.72;;;;;;;8.64;68.95;100976.72;5065663;28;20055;-71
2022/04/10 06:18:38;;;;;;;7.10;4.25;;;;;;;8.86;67.92;100965.75;5071868;28;20041;-72
2022/04/10 06:21:08;;;;;;;3.83;3.28;;;;;;;9.06;66.81;100976.03;5071349;28;20624;-72
2022/04/10 06:23:36;;;;;;;5.10;3.15;;;;;;;9.21;64.92;100969.88;5070439;28;20048;-71
2022/04/10 06:26:11;;;;;;;5.13;3.45;;;;;;;9.38;64.21;100974.34;5072008;28;20067;-71
2022/04/10 06:28:39;;;;;;;6.85;4.00;;;;;;;9.30;64.06;100970.22;5071795;28;20044;-71
2022/04/10 06:31:11;;;;;;;8.95;3.20;;;;;;;9.58;62.34;100976.41;5071180;28;20051;-71
2022/04/10 06:33:40;;;;;;;5.53;3.40;;;;;;;9.62;60.98;100969.31;5055104;28;20048;-71
2022/04/10 06:36:08;;;;;;;4.00;3.10;;;;;;;9.69;60.44;100966.38;5070682;28;20502;-70
2022/04/10 06:38:36;;;;;;;4.25;3.67;;;;;;;9.79;57.98;100965.59;5070669;28;20048;-71
2022/04/10 06:41:09;;;;;;;3.03;2.72;;;;;;;10.01;57.61;100970.91;5092771;28;20064;-70
2022/04/10 06:43:37;;;;;;;3.28;2.83;;;;;;;10.14;57.06;100966.88;5070534;28;20044;-70
2022/04/10 06:46:39;;;;;;;4.40;3.20;;;;;;;10.15;55.42;100973.97;5065344;28;20362;-70
2022/04/10 06:49:13;;;;;;;5.70;2.83;;;;;;;10.32;56.62;100972.94;5079165;28;20052;-70
2022/04/10 06:51:45;;;;;;;3.33;2.88;;;;;;;10.44;56.46;100970.00;5080890;28;20055;-70
2022/04/10 06:54:18;;;;;;;3.17;2.93;;;;;;;10.57;55.63;100974.13;5063136;28;20067;-71
2022/04/10 06:56:46;;;;;;;3.47;2.90;;;;;;;10.51;54.42;100980.69;5082226;28;20390;-71
2022/04/10 06:59:14;;;;;;;7.28;2.75;;;;;;;10.45;54.89;100972.47;5074258;28;20485;-70
2022/04/10 07:01:43;;;;;;;6.38;2.95;;;;;;;10.46;54.80;100979.56;5080338;28;20052;-70
2022/04/10 07:04:13;;;;;;;3.10;2.80;;;;;;;10.57;55.34;100980.41;5072711;28;20053;-70
2022/04/10 07:06:46;;;;;;;3.95;2.90;;;;;;;10.66;54.30;100977.16;5074916;28;20064;-70
2022/04/10 07:09:16;;;;;;;3.65;3.13;;;;;;;10.82;53.34;100975.28;5071743;28;20040;-70
2022/04/10 07:11:45;;;;;;;3.00;2.33;;;;;;;10.85;52.75;100975.53;5102668;28;20523;-70
2022/04/10 07:14:32;;;;;;;2.95;2.70;;;;;;;11.05;53.33;100973.09;5068547;28;20057;-71
2022/04/10 07:17:00;;;;;;;4.35;2.08;;;;;;;11.11;50.59;100977.47;5069287;28;20043;-71
2022/04/10 07:19:29;;;;;;;3.53;2.00;;;;;;;11.18;49.85;100986.25;5069656;28;20053;-71
2022/04/10 07:24:45;;;;;;;1.77;1.63;;;;;;;11.38;45.43;100979.09;5079001;28;20530;-70
2022/04/10 07:27:13;;;;;;;3.33;1.52;;;;;;;11.31;43.87;100978.56;5071604;28;20047;-71
2022/04/10 07:29:55;;;;;;;1.77;1.20;;;;;;;11.36;45.07;100984.03;5071163;28;20051;-71
2022/04/10 07:32:29;;;;;;;3.70;1.70;;;;;;;11.50;44.77;100979.66;5069104;28;20049;-70
2022/04/10 07:35:04;;;;;;;1.00;0.90;;;;;;;11.53;44.15;100987.31;5070049;28;20040;-71
2022/04/10 07:37:40;;;;;;;1.52;1.23;;;;;;;11.76;45.68;100987.81;5066565;28;20047;-71
2022/04/10 07:40:08;;;;;;;3.30;2.00;;;;;;;11.92;45.97;100991.34;5067960;28;20052;-71
2022/04/10 07:42:43;;;;;;;2.10;1.90;;;;;;;12.04;46.46;100999.31;5065764;28;20403;-72
2022/04/10 07:48:12;;;;;;;3.33;2.17;;;;;;;12.07;45.72;101000.63;5079858;28;20055;-71
2022/04/10 07:50:41;;;;;;;4.50;2.35;;;;;;;12.22;45.71;101010.75;5076762;28;20040;-71
2022/04/10 07:53:12;;;;;;;4.22;1.88;;;;;;;12.30;44.66;101007.44;5079860;28;20044;-71
2022/04/10 07:55:47;;;;;;;2.22;1.83;;;;;;;12.39;42.31;101009.56;5094451;28;20044;-71
2022/04/10 07:58:18;;;;;;;2.13;1.80;;;;;;;12.27;41.48;101002.47;5080652;28;20044;-71
2022/04/10 08:00:46;;;;;;;2.20;2.00;;;;;;;12.34;41.71;101007.69;5080033;28;20041;-72
2022/04/10 08:03:14;;;;;;;1.90;1.80;;;;;;;12.53;42.96;101015.28;5083123;28;20581;-71
2022/04/10 08:05:51;;;;;;;2.83;1.55;;;;;;;12.56;40.81;101011.97;5078319;28;20047;-71
2022/04/10 08:08:25;;;;;;;;;;;;;;;12.55;41.68;101013.88;5070526;28;20049;-72
2022/04/10 08:10:54;;;;;;;2.55;1.58;;;;;;;12.62;39.66;101014.41;5071200;28;19921;-73
2022/04/10 08:13:22;;;;;;;9.38;1.35;;;;;;;12.71;40.43;101022.06;5071301;28;20057;-73
2022/04/10 08:15:50;;;;;;;2.50;1.48;;;;;;;12.67;39.30;101016.31;5072177;28;20047;-73
2022/04/10 08:18:18;;;;;;;4.68;1.70;;;;;;;12.64;40.14;101027.84;5074326;28;20131;-72
2022/04/10 08:20:46;;;;;;;1.75;1.38;;;;;;;12.59;41.01;101030.63;5080496;28;20045;-72
2022/04/10 08:23:17;;;;;;;1.35;1.25;;;;;;;12.59;40.18;101017.72;5081926;28;20036;-73
2022/04/10 08:25:45;;;;;;;2.25;1.52;;;;;;;12.66;40.97;101030.31;5087147;28;20044;-72
2022/04/10 08:28:13;;;;;;;2.22;1.38;;;;;;;12.79;40.39;101035.19;5089208;28;20075;-72
2022/04/10 08:30:41;;;;;;;1.70;1.35;;;;;;;12.87;39.06;101034.56;5085138;28;20045;-72
2022/04/10 08:33:08;;;;;;;1.08;1.05;;;;;;;13.12;39.57;101029.19;5083263;28;20044;-72
2022/04/10 08:35:36;;;;;;;1.23;1.13;;;;;;;13.17;38.38;101035.50;5083738;28;20402;-72
2022/04/10 08:38:04;;;;;;;1.27;1.10;;;;;;;13.15;38.41;101043.19;5085506;28;20051;-72
2022/04/10 08:40:32;;;;;;;2.30;1.55;;;;;;;13.16;37.98;101050.31;5071219;28;20064;-72
2022/04/10 08:43:02;;;;;;;1.33;1.23;;;;;;;13.21;38.27;101049.47;5069990;28;20044;-72
2022/04/10 08:45:30;;;;;;;2.47;1.20;;;;;;;13.16;36.93;101049.50;5070990;28;20509;-72
2022/04/10 08:47:59;;;;;;;3.83;1.48;;;;;;;13.22;35.14;101048.34;5069849;28;20064;-72
2022/04/10 08:50:27;;;;;;;1.83;1.15;;;;;;;13.20;37.69;101044.25;5073394;28;20390;-72
2022/04/10 08:52:58;;;;;;;1.40;1.30;;;;;;;13.27;37.73;101051.06;5074940;28;20410;-72
2022/04/10 08:55:26;;;;;;;1.38;1.10;;;;;;;13.30;38.88;101052.44;5074705;28;20072;-72
2022/04/10 08:57:54;;;;;;;3.00;1.50;;;;;;;13.37;37.45;101052.09;5074841;28;20390;-72
2022/04/10 09:00:23;;;;;;;3.08;1.42;;;;;;;13.41;37.32;101056.72;5074030;28;20044;-72
2022/04/10 09:02:52;;;;;;;3.70;1.30;;;;;;;13.56;38.07;101057.75;5072867;28;20040;-72
2022/04/10 09:05:22;;;;;;;2.33;1.30;;;;;;;13.66;36.16;101056.81;5074562;28;20032;-72
2022/04/10 09:08:12;;;;;;;1.10;1.00;;;;;;;13.73;35.97;101057.28;5074301;28;20052;-72
2022/04/10 09:10:56;;;;;;;1.20;1.10;;;;;;;13.67;35.92;101058.47;5074583;28;20040;-72
2022/04/10 09:13:48;;;;;;;1.27;1.17;;;;;;;13.75;36.48;101068.84;5071420;28;20043;-72
2022/04/10 09:16:23;;;;;;;2.70;1.27;;;;;;;13.87;36.18;101067.66;5074314;28;20051;-72
2022/04/10 09:19:06;;;;;;;1.15;1.10;;;;;;;13.78;33.98;101070.19;5073339;28;20510;-72
2022/04/10 09:21:37;;;;;;;1.17;1.08;;;;;;;13.66;34.29;101065.06;5088372;28;20114;-72
2022/04/10 09:24:09;;;;;;;1.60;1.35;;;;;;;13.78;33.76;101072.97;5073221;28;20059;-73
2022/04/10 09:26:46;;;;;;;1.30;1.20;;;;;;;13.72;32.70;101063.91;5067141;28;20051;-72
2022/04/10 09:29:16;;;;;;;4.32;1.00;;;;;;;13.96;34.26;101074.13;5072962;28;20044;-72
2022/04/10 09:31:45;;;;;;;4.63;1.30;;;;;;;14.02;33.55;101072.16;5077691;28;20044;-72
2022/04/10 09:34:16;;;;;;;2.28;1.20;;;;;;;14.14;32.10;101064.31;5082368;28;20059;-72
2022/04/10 09:37:06;;;;;;;1.67;0.90;;;;;;;14.24;31.28;101055.94;5087881;28;20028;-73
2022/04/10 09:39:36;;;;;;;1.65;1.13;;;;;;;14.21;32.00;101055.69;5091780;28;20044;-73
2022/04/10 09:42:10;;;;;;;1.27;1.05;;;;;;;14.22;30.85;101058.16;5086646;28;20040;-74
2022/04/10 09:44:58;;;;;;;1.85;1.55;;;;;;;14.41;32.48;101053.84;5074792;28;20444;-73
2022/04/10 09:47:26;;;;;;;1.13;1.02;;;;;;;14.37;30.99;101051.66;5091743;28;20453;-71
2022/04/10 09:50:04;;;;;;;1.42;1.00;;;;;;;14.33;30.07;101052.56;5086252;28;20044;-73
2022/04/10 09:52:39;;;;;;;0.88;0.88;;;;;;;14.36;30.80;101052.78;5071500;28;20033;-72
2022/04/10 09:55:08;;;;;;;2.85;1.20;;;;;;;14.50;31.89;101052.88;5090392;28;20052;-71
2022/04/10 09:57:36;;;;;;;1.30;1.23;;;;;;;14.63;28.82;101056.84;5090373;28;20406;-71
2022/04/10 10:00:09;;;;;;;0.82;0.70;;;;;;;14.61;27.30;101052.72;5089433;28;20398;-74
2022/04/10 10:02:41;;;;;;;0.70;0.70;;;;;;;14.73;25.55;101053.16;5089648;28;20395;-72
2022/04/10 10:05:10;;;;;;;1.40;1.00;;;;;;;14.77;27.30;101058.91;5083811;28;20040;-72
2022/04/10 10:07:43;;;;;;;1.50;0.93;;;;;;;14.78;24.96;101049.53;5086684;28;20063;-72
2022/04/10 10:10:14;;;;;;;4.30;1.20;;;;;;;14.87;25.26;101039.44;5083361;28;20425;-74
2022/04/10 10:12:45;;;;;;;3.78;1.60;;;;;;;14.95;24.10;101043.47;5088829;28;20051;-72
2022/04/10 10:15:14;;;;;;;1.00;0.90;;;;;;;15.12;25.41;101037.44;5078976;28;20048;-72
2022/04/10 10:17:43;;;;;;;1.70;0.80;;;;;;;15.26;23.85;101040.25;5086989;28;20044;-72
2022/04/10 10:20:11;;;;;;;1.27;0.70;;;;;;;15.17;24.53;101047.56;5087220;28;20044;-72
2022/04/10 10:22:39;;;;;;;2.38;1.25;;;;;;;15.28;22.57;101046.28;5088589;28;20386;-73
2022/04/10 10:25:15;;;;;;;1.52;1.02;;;;;;;15.46;22.50;101041.03;5076098;28;20040;-72
2022/04/10 10:27:47;;;;;;;1.13;0.88;;;;;;;15.51;24.20;101040.97;5078280;28;20494;-72
2022/04/10 10:30:35;;;;;;;1.63;1.20;;;;;;;15.60;23.76;101043.84;5083781;28;20044;-72
2022/04/10 10:33:17;;;;;;;2.38;1.00;;;;;;;15.54;22.46;101037.56;5081609;28;20063;-72
2022/04/10 10:35:50;;;;;;;8.20;1.35;;;;;;;15.24;21.61;101036.19;5071936;28;20399;-73
2022/04/10 10:38:30;;;;;;;2.33;1.20;;;;;;;15.38;20.79;101019.66;5071258;28;20056;-72
2022/04/10 10:41:12;;;;;;;1.35;1.00;;;;;;;15.61;24.59;101037.19;5072449;28;20051;-72
2022/04/10 10:43:39;;;;;;;1.83;0.80;;;;;;;15.72;22.45;101037.81;5071176;28;20048;-72
2022/04/10 10:46:22;;;;;;;0.88;0.80;;;;;;;15.69;22.51;101025.44;5070101;28;20045;-72
2022/04/10 10:49:17;;;;;;;2.30;0.98;;;;;;;15.72;23.03;101027.63;5071087;28;20059;-73
2022/04/10 10:51:49;;;;;;;1.25;0.95;;;;;;;15.57;23.36;101028.72;5071813;28;20047;-73
2022/04/10 10:54:24;;;;;;;3.33;1.08;;;;;;;15.63;22.90;101031.38;5072248;28;20052;-73
2022/04/10 10:56:53;;;;;;;0.95;0.93;;;;;;;15.55;24.65;101019.09;5103851;28;20051;-73
2022/04/10 10:59:23;;;;;;;2.28;1.55;;;;;;;15.57;25.57;101017.69;5072422;28;20040;-73
2022/04/10 11:01:52;;;;;;;1.55;0.85;;;;;;;15.67;24.69;101013.91;5070087;28;20045;-73
2022/04/10 11:04:21;;;;;;;1.30;1.15;;;;;;;15.81;25.79;101016.69;5070958;28;20052;-73
2022/04/10 11:06:50;;;;;;;1.40;1.25;;;;;;;15.77;25.25;101007.38;5071331;28;20049;-73
2022/04/10 11:09:29;;;;;;;2.40;1.85;;;;;;;15.90;26.02;101014.03;5072278;28;20049;-73
2022/04/10 11:11:59;;;;;;;1.90;1.75;;;;;;;15.96;25.81;101010.09;5087678;28;20052;-73
2022/04/10 11:14:39;;;;;;;1.73;1.50;;;;;;;16.24;25.61;101012.81;5071982;28;20048;-73
2022/04/10 11:17:17;;;;;;;1.77;1.35;;;;;;;16.21;26.13;101007.09;5070049;28;20491;-73
2022/04/10 11:19:49;;;;;;;3.63;1.40;;;;;;;16.20;24.93;101005.47;5074942;28;20090;-73
2022/04/10 11:22:54;;;;;;;1.45;1.35;;;;;;;16.00;25.69;101002.00;5078775;28;20036;-72
2022/04/10 11:25:28;;;;;;;1.73;1.50;;;;;;;16.07;25.35;101009.88;5070030;28;20518;-72
2022/04/10 11:28:03;;;;;;;2.13;1.83;;;;;;;16.21;23.74;101001.59;5075858;28;20053;-72
2022/04/10 11:30:42;;;;;;;1.58;1.48;;;;;;;16.23;24.58;100996.59;5079552;28;20058;-72
2022/04/10 11:33:11;;;;;;;1.85;1.23;;;;;;;16.50;25.21;101006.78;5073358;28;20044;-71
2022/04/10 11:35:46;;;;;;;1.45;1.35;;;;;;;16.57;25.04;100998.03;5064272;28;20061;-72
2022/04/10 11:38:18;;;;;;;1.45;1.35;;;;;;;16.55;24.18;100999.47;5080141;28;20040;-72
2022/04/10 11:40:50;;;;;;;1.65;1.45;;;;;;;16.75;25.74;100996.28;5090158;28;20040;-72
2022/04/10 11:43:21;;;;;;;3.10;1.88;;;;;;;16.71;24.89;100983.41;5072824;28;20055;-73
2022/04/10 11:45:50;;;;;;;2.50;1.52;;;;;;;16.88;25.46;100986.31;5065846;28;20057;-73
2022/04/10 11:48:18;;;;;;;2.78;1.52;;;;;;;16.84;25.96;100979.75;5069545;28;20049;-73
2022/04/10 11:50:46;;;;;;;2.03;1.63;;;;;;;16.71;26.47;100980.63;5071829;28;20048;-72
2022/04/10 11:53:18;;;;;;;2.63;2.30;;;;;;;16.65;27.70;100980.75;5090639;28;20036;-72
2022/04/10 11:55:48;;;;;;;2.45;2.15;;;;;;;16.77;26.93;100976.63;5083435;28;20482;-72
2022/04/10 11:58:21;;;;;;;2.20;1.95;;;;;;;16.93;25.67;100974.31;5081122;28;20041;-72
2022/04/10 12:00:58;;;;;;;3.08;1.85;;;;;;;16.99;25.40;100974.97;5084147;28;20043;-71
2022/04/10 12:03:30;;;;;;;2.35;1.33;;;;;;;17.06;26.30;100967.91;5086901;28;20043;-71
2022/04/10 12:05:58;;;;;;;2.63;1.80;;;;;;;17.14;27.13;100971.88;5085366;28;20403;-73
2022/04/10 12:08:27;;;;;;;6.15;1.90;;;;;;;17.43;24.58;100965.06;5076815;28;20048;-72
2022/04/10 12:11:00;;;;;;;3.55;1.80;;;;;;;17.29;24.57;100962.38;5080995;28;20051;-71
2022/04/10 12:13:37;;;;;;;14.90;2.35;;;;;;;17.41;25.64;100964.53;5072884;28;20047;-73
2022/04/10 12:16:13;;;;;;;1.90;1.50;;;;;;;17.42;24.99;100957.06;5082795;28;20520;-72